createdAt,value
2022-08-10T00:02:20.107Z,2.90
2022-08-10T00:05:11.561Z,3.30
2022-08-10T00:07:42.074Z,3.00
2022-08-10T00:10:14.638Z,3.10
2022-08-10T00:12:54.432Z,2.60
2022-08-10T00:15:57.274Z,3.30
2022-08-10T00:18:36.306Z,2.80
2022-08-10T00:21:08.524Z,3.00
2022-08-10T00:23:40.167Z,3.20
2022-08-10T00:30:00.829Z,2.80
2022-08-10T00:32:31.047Z,3.00
2022-08-10T00:35:01.497Z,3.10
2022-08-10T00:37:31.969Z,2.90
2022-08-10T00:40:02.623Z,2.80
2022-08-10T00:42:33.243Z,2.70
2022-08-10T00:45:03.818Z,2.90
2022-08-10T00:47:36.695Z,2.90
2022-08-10T00:50:10.126Z,3.20
2022-08-10T00:52:42.104Z,3.10
2022-08-10T00:55:13.056Z,3.70
2022-08-10T00:57:44.144Z,3.40
2022-08-10T01:00:15.156Z,2.70
2022-08-10T01:02:47.990Z,3.20
2022-08-10T01:05:19.750Z,2.90
2022-08-10T01:08:07.986Z,3.20
2022-08-10T01:11:07.598Z,3.20
2022-08-10T01:17:07.746Z,3.80
2022-08-10T01:20:04.593Z,3.30
2022-08-10T01:22:53.495Z,3.50
2022-08-10T01:26:12.391Z,3.90
2022-08-10T01:29:24.115Z,3.40
2022-08-10T01:32:01.301Z,3.30
2022-08-10T01:34:41.845Z,3.50
2022-08-10T01:41:05.187Z,3.80
2022-08-10T01:43:42.403Z,3.60
2022-08-10T01:46:16.346Z,3.10
2022-08-10T01:48:53.008Z,3.70
2022-08-10T01:51:42.343Z,4.70
2022-08-10T01:54:15.463Z,4.20
2022-08-10T01:56:48.442Z,3.50
2022-08-10T01:59:25.522Z,3.90
2022-08-10T02:02:13.027Z,3.80
2022-08-10T02:08:34.606Z,4.40
2022-08-10T02:11:05.229Z,3.60
2022-08-10T02:13:36.784Z,3.70
2022-08-10T02:16:08.667Z,3.20
2022-08-10T02:18:40.883Z,3.40
2022-08-10T02:21:17.086Z,4.10
2022-08-10T02:23:59.394Z,3.60
2022-08-10T02:26:32.986Z,3.50
2022-08-10T02:29:04.200Z,3.40
2022-08-10T02:31:36.429Z,3.20
2022-08-10T02:34:09.724Z,3.70
2022-08-10T02:36:53.766Z,3.80
2022-08-10T02:39:26.649Z,3.70
2022-08-10T02:42:18.382Z,3.80
2022-08-10T02:45:29.146Z,4.10
2022-08-10T02:48:07.395Z,3.50
2022-08-10T02:50:40.745Z,3.10
2022-08-10T02:56:40.465Z,3.50
2022-08-10T02:59:17.160Z,4.00
2022-08-10T03:01:51.576Z,4.30
2022-08-10T03:04:55.914Z,3.80
2022-08-10T03:07:20.009Z,3.60
2022-08-10T03:10:14.585Z,4.00
2022-08-10T03:12:54.584Z,3.80
2022-08-10T03:15:26.735Z,4.20
2022-08-10T03:17:59.044Z,4.40
2022-08-10T03:20:40.209Z,4.30
2022-08-10T03:23:17.271Z,4.20
2022-08-10T03:25:55.810Z,4.00
2022-08-10T03:28:29.549Z,3.50
2022-08-10T03:31:02.031Z,3.40
2022-08-10T03:33:35.429Z,4.30
2022-08-10T03:36:43.936Z,3.90
2022-08-10T03:39:03.368Z,3.40
2022-08-10T03:41:58.098Z,3.80
2022-08-10T03:44:34.026Z,4.00
2022-08-10T03:47:16.444Z,3.70
2022-08-10T03:49:49.749Z,3.70
2022-08-10T03:52:21.656Z,4.50
2022-08-10T03:54:53.025Z,4.40
2022-08-10T03:57:24.574Z,4.70
2022-08-10T03:59:55.234Z,4.60
2022-08-10T04:02:45.314Z,4.10
2022-08-10T04:05:18.690Z,4.10
2022-08-10T04:07:49.150Z,4.00
2022-08-10T04:10:19.869Z,4.40
2022-08-10T04:13:12.315Z,4.70
2022-08-10T04:15:43.066Z,4.70
2022-08-10T04:18:13.802Z,4.80
2022-08-10T04:21:12.673Z,4.40
2022-08-10T04:23:49.915Z,4.20
2022-08-10T04:26:23.704Z,4.60
2022-08-10T04:29:12.212Z,4.60
2022-08-10T04:31:48.230Z,4.30
2022-08-10T04:34:19.025Z,4.20
2022-08-10T04:36:55.117Z,4.40
2022-08-10T04:39:58.464Z,4.60
2022-08-10T04:42:29.185Z,5.10
2022-08-10T04:44:59.369Z,4.60
2022-08-10T04:47:57.427Z,4.90
2022-08-10T04:50:20.159Z,4.90
2022-08-10T04:52:55.068Z,5.00
2022-08-10T04:55:25.536Z,4.60
2022-08-10T04:57:58.353Z,5.50
2022-08-10T05:00:28.773Z,5.80
2022-08-10T05:03:01.717Z,4.90
2022-08-10T05:05:32.238Z,4.70
2022-08-10T05:08:02.744Z,4.90
2022-08-10T05:10:33.281Z,5.00
2022-08-10T05:13:05.489Z,5.30
2022-08-10T05:15:36.574Z,5.40
2022-08-10T05:18:09.552Z,5.50
2022-08-10T05:20:42.065Z,5.00
2022-08-10T05:23:12.589Z,5.90
2022-08-10T05:26:28.775Z,5.70
2022-08-10T05:28:59.754Z,5.80
2022-08-10T05:31:30.271Z,5.60
2022-08-10T05:34:00.579Z,5.50
2022-08-10T05:36:37.995Z,4.40
2022-08-10T05:39:08.837Z,4.70
2022-08-10T05:41:44.786Z,5.10
2022-08-10T05:44:17.183Z,4.80
2022-08-10T05:47:12.644Z,5.00
2022-08-10T05:49:43.241Z,5.30
2022-08-10T05:52:13.527Z,5.20
2022-08-10T05:54:44.474Z,5.10
2022-08-10T05:57:17.606Z,5.40
2022-08-10T06:00:36.318Z,5.20
2022-08-10T06:03:09.705Z,4.70
2022-08-10T06:05:43.786Z,4.90
2022-08-10T06:08:28.808Z,4.10
2022-08-10T06:12:23.922Z,5.50
2022-08-10T06:14:13.626Z,5.30
2022-08-10T06:16:47.569Z,5.20
2022-08-10T06:22:54.741Z,4.30
2022-08-10T06:26:10.141Z,4.20
2022-08-10T06:28:18.860Z,4.10
2022-08-10T06:31:11.353Z,3.90
2022-08-10T06:33:43.667Z,4.30
2022-08-10T06:36:15.498Z,4.20
2022-08-10T06:38:48.037Z,4.10
2022-08-10T06:50:58.671Z,3.70
2022-08-10T06:53:53.707Z,3.50
2022-08-10T06:56:36.186Z,2.80
2022-08-10T07:00:44.262Z,2.50
2022-08-10T07:03:18.256Z,3.00
2022-08-10T07:05:52.392Z,2.70
2022-08-10T07:08:25.255Z,2.60
2022-08-10T07:10:57.623Z,2.60
2022-08-10T07:14:14.085Z,2.10
2022-08-10T07:16:33.725Z,3.10
2022-08-10T07:19:05.247Z,2.40
2022-08-10T07:21:36.561Z,2.30
2022-08-10T07:28:28.992Z,2.10
2022-08-10T07:31:00.199Z,2.20
2022-08-10T07:33:31.015Z,2.00
2022-08-10T07:36:14.077Z,2.10
2022-08-10T07:38:45.911Z,2.00
2022-08-10T07:41:20.112Z,2.10
2022-08-10T07:44:33.288Z,2.00
2022-08-10T07:47:52.487Z,1.70
2022-08-10T07:50:22.765Z,1.90
2022-08-10T07:52:56.696Z,1.60
2022-08-10T07:56:03.965Z,1.90
2022-08-10T07:58:20.529Z,2.10
2022-08-10T08:00:55.969Z,1.50
2022-08-10T08:03:31.216Z,1.70
2022-08-10T08:06:09.089Z,1.80
2022-08-10T08:08:46.193Z,1.20
2022-08-10T08:11:25.609Z,1.40
2022-08-10T08:13:57.693Z,1.40
2022-08-10T08:16:29.032Z,1.30
2022-08-10T08:24:10.317Z,1.30
2022-08-10T08:24:43.624Z,1.40
2022-08-10T08:27:20.220Z,1.50
2022-08-10T08:29:52.607Z,1.90
2022-08-10T08:32:26.469Z,1.50
2022-08-10T08:35:04.111Z,1.60
2022-08-10T08:38:32.123Z,1.20
2022-08-10T08:40:30.492Z,1.80
2022-08-10T08:44:22.278Z,1.80
2022-08-10T08:48:05.253Z,1.50
2022-08-10T08:50:37.975Z,1.70
2022-08-10T08:54:01.901Z,1.80
2022-08-10T08:56:31.618Z,1.60
2022-08-10T08:59:29.874Z,1.60
2022-08-10T09:02:41.318Z,1.70
2022-08-10T09:06:07.769Z,1.70
2022-08-10T09:09:09.792Z,2.20
2022-08-10T09:12:14.383Z,1.60
2022-08-10T09:14:51.982Z,1.30
2022-08-10T09:17:45.858Z,1.70
2022-08-10T09:20:43.656Z,1.50
2022-08-10T09:24:01.918Z,1.10
2022-08-10T09:31:21.610Z,1.20
2022-08-10T09:36:19.619Z,1.60
2022-08-10T09:36:56.522Z,1.50
2022-08-10T09:42:40.037Z,1.40
2022-08-10T09:46:01.343Z,1.50
2022-08-10T09:48:47.708Z,1.30
2022-08-10T09:51:45.731Z,1.30
2022-08-10T09:55:02.050Z,1.20
2022-08-10T09:57:57.054Z,1.50
2022-08-10T10:01:02.161Z,1.50
2022-08-10T10:04:17.177Z,1.30
2022-08-10T10:07:07.398Z,1.30
2022-08-10T10:10:03.508Z,1.20
2022-08-10T10:12:55.008Z,1.40
2022-08-10T10:16:09.387Z,1.20
2022-08-10T10:19:44.084Z,1.20
2022-08-10T10:22:31.895Z,1.40
2022-08-10T10:25:19.961Z,1.20
2022-08-10T10:28:00.710Z,1.30
2022-08-10T10:30:40.697Z,1.40
2022-08-10T10:33:16.875Z,1.30
2022-08-10T10:35:55.357Z,1.50
2022-08-10T10:38:38.910Z,1.40
2022-08-10T10:41:18.007Z,1.30
2022-08-10T10:44:22.575Z,1.20
2022-08-10T10:47:14.930Z,1.30
2022-08-10T10:50:03.884Z,1.00
2022-08-10T10:53:00.384Z,1.00
2022-08-10T10:56:13.539Z,1.00
2022-08-10T10:58:49.284Z,1.20
2022-08-10T11:01:50.191Z,1.20
2022-08-10T11:04:28.722Z,1.30
2022-08-10T11:07:35.790Z,1.50
2022-08-10T11:10:31.968Z,0.90
2022-08-10T11:14:25.409Z,1.00
2022-08-10T11:16:10.999Z,1.20
2022-08-10T11:18:56.550Z,1.70
2022-08-10T11:21:55.531Z,1.10
2022-08-10T11:24:48.017Z,0.80
2022-08-10T11:27:54.500Z,0.90
2022-08-10T11:30:35.487Z,1.10
2022-08-10T11:33:30.918Z,1.00
2022-08-10T11:36:09.255Z,1.20
2022-08-10T11:39:21.570Z,1.30
2022-08-10T11:42:18.542Z,1.20
2022-08-10T11:45:04.133Z,1.30
2022-08-10T11:47:55.000Z,1.60
2022-08-10T11:50:26.922Z,1.00
2022-08-10T11:53:19.273Z,1.20
2022-08-10T11:55:58.908Z,1.30
2022-08-10T11:58:51.655Z,1.00
2022-08-10T12:01:37.857Z,0.80
2022-08-10T12:04:13.704Z,1.00
2022-08-10T12:06:56.204Z,1.00
2022-08-10T12:10:09.738Z,0.90
2022-08-10T12:12:21.367Z,0.80
2022-08-10T12:18:22.055Z,0.80
2022-08-10T12:21:14.102Z,0.90
2022-08-10T12:24:02.856Z,0.90
2022-08-10T12:27:27.397Z,0.90
2022-08-10T12:30:02.411Z,0.90
2022-08-10T12:33:03.466Z,1.10
2022-08-10T12:36:08.256Z,1.00
2022-08-10T12:38:44.529Z,0.80
2022-08-10T12:41:55.339Z,1.10
2022-08-10T12:44:41.402Z,1.00
2022-08-10T12:47:31.084Z,1.10
2022-08-10T12:50:33.812Z,1.00
2022-08-10T12:53:20.143Z,1.00
2022-08-10T12:55:54.257Z,0.80
2022-08-10T13:06:32.722Z,0.90
2022-08-10T13:09:13.548Z,0.90
2022-08-10T13:12:36.739Z,0.80
2022-08-10T13:14:48.135Z,0.90
2022-08-10T13:21:45.892Z,1.00
2022-08-10T13:24:25.797Z,1.00
2022-08-10T13:27:26.781Z,1.30
2022-08-10T13:32:03.576Z,0.70
2022-08-10T13:38:49.236Z,0.80
2022-08-10T13:41:21.212Z,0.80
2022-08-10T13:44:40.383Z,0.90
2022-08-10T13:47:15.738Z,1.10
2022-08-10T13:50:00.835Z,1.00
2022-08-10T13:52:38.538Z,1.20
2022-08-10T13:55:23.301Z,0.80
2022-08-10T13:58:06.029Z,0.90
2022-08-10T14:01:00.676Z,0.90
2022-08-10T14:03:39.895Z,0.80
2022-08-10T14:06:19.274Z,1.00
2022-08-10T14:09:01.870Z,0.90
2022-08-10T14:11:33.864Z,1.20
2022-08-10T14:14:11.118Z,0.90
2022-08-10T14:16:46.336Z,0.90
2022-08-10T14:19:35.295Z,5.20
2022-08-10T14:22:10.895Z,1.70
2022-08-10T14:24:42.045Z,1.10
2022-08-10T14:27:16.288Z,1.30
2022-08-10T14:29:57.280Z,0.90
2022-08-10T14:32:32.457Z,1.10
2022-08-10T14:36:20.848Z,1.20
2022-08-10T14:38:28.314Z,0.80
2022-08-10T14:41:02.760Z,1.10
2022-08-10T14:43:58.015Z,1.10
2022-08-10T14:46:32.325Z,1.10
2022-08-10T14:49:26.292Z,1.10
2022-08-10T14:52:02.158Z,1.30
2022-08-10T14:54:35.069Z,1.30
2022-08-10T14:57:10.840Z,1.40
2022-08-10T15:00:24.696Z,1.30
2022-08-10T15:02:52.925Z,1.10
2022-08-10T15:05:47.185Z,1.30
2022-08-10T15:08:24.558Z,1.10
2022-08-10T15:12:11.996Z,1.10
2022-08-10T15:14:42.653Z,1.00
2022-08-10T15:17:36.395Z,1.20
2022-08-10T15:20:35.410Z,1.20
2022-08-10T15:23:35.557Z,1.20
2022-08-10T15:26:51.062Z,1.20
2022-08-10T15:29:57.021Z,1.00
2022-08-10T15:33:04.558Z,1.00
2022-08-10T15:36:30.965Z,1.20
2022-08-10T15:40:20.914Z,1.60
2022-08-10T15:45:46.464Z,1.20
2022-08-10T15:48:47.994Z,1.90
2022-08-10T15:51:54.291Z,1.90
2022-08-10T15:55:00.445Z,2.50
2022-08-10T15:58:00.675Z,1.50
2022-08-10T16:01:04.800Z,1.10
2022-08-10T16:04:32.385Z,15.50
2022-08-10T16:07:21.558Z,3.70
2022-08-10T16:10:38.860Z,3.20
2022-08-10T16:14:00.302Z,2.70
2022-08-10T16:16:11.035Z,2.70
2022-08-10T16:18:45.464Z,1.60
2022-08-10T16:21:41.882Z,1.70
2022-08-10T16:24:16.875Z,13.10
2022-08-10T16:26:54.589Z,10.60
2022-08-10T16:29:31.484Z,3.10
2022-08-10T16:32:27.956Z,6.70
2022-08-10T16:35:00.616Z,2.70
2022-08-10T16:38:27.717Z,2.20
2022-08-10T16:42:04.081Z,2.00
2022-08-10T16:45:04.246Z,1.70
2022-08-10T16:50:42.060Z,4.50
2022-08-10T16:53:23.037Z,3.30
2022-08-10T16:55:58.828Z,2.20
2022-08-10T16:58:35.852Z,4.00
2022-08-10T17:01:34.482Z,3.40
2022-08-10T17:04:13.828Z,4.70
2022-08-10T17:07:01.773Z,2.40
2022-08-10T17:09:35.991Z,3.70
2022-08-10T17:12:12.068Z,2.60
2022-08-10T17:15:11.745Z,2.50
2022-08-10T17:17:49.876Z,2.90
2022-08-10T17:20:41.176Z,2.20
2022-08-10T17:23:17.018Z,1.70
2022-08-10T17:26:14.141Z,2.30
2022-08-10T17:29:57.879Z,2.20
2022-08-10T17:32:52.812Z,6.30
2022-08-10T17:35:55.337Z,3.60
2022-08-10T17:41:37.205Z,2.30
2022-08-10T17:44:10.335Z,2.40
2022-08-10T17:46:44.158Z,2.60
2022-08-10T17:49:37.544Z,2.40
2022-08-10T17:56:42.044Z,3.10
2022-08-10T17:59:18.543Z,2.80
2022-08-10T18:02:02.350Z,3.10
2022-08-10T18:04:41.904Z,3.10
2022-08-10T18:07:14.207Z,3.10
2022-08-10T18:09:56.219Z,3.90
2022-08-10T18:16:20.369Z,5.40
2022-08-10T18:19:17.443Z,3.40
2022-08-10T18:21:59.188Z,3.40
2022-08-10T18:25:04.558Z,2.30
2022-08-10T18:28:01.657Z,2.20
2022-08-10T18:30:45.942Z,2.30
2022-08-10T18:33:18.423Z,2.00
2022-08-10T18:35:52.016Z,2.10
2022-08-10T18:38:57.836Z,2.30
2022-08-10T18:45:58.597Z,2.30
2022-08-10T19:05:59.755Z,2.90
2022-08-10T19:09:09.630Z,3.80
2022-08-10T19:13:21.705Z,3.80
2022-08-10T19:20:32.977Z,3.00
2022-08-10T19:23:33.234Z,2.70
2022-08-10T19:26:44.200Z,2.50
2022-08-10T19:30:12.440Z,4.80
2022-08-10T19:36:26.484Z,2.50
2022-08-10T19:42:31.078Z,2.30
2022-08-10T19:46:01.356Z,2.50
2022-08-10T19:48:59.235Z,2.80
2022-08-10T19:52:10.972Z,2.20
2022-08-10T19:55:26.916Z,2.40
2022-08-10T19:58:24.146Z,2.90
2022-08-10T20:01:22.922Z,2.30
2022-08-10T20:04:06.309Z,3.10
2022-08-10T20:06:48.204Z,2.90
2022-08-10T20:09:47.761Z,2.30
2022-08-10T20:12:53.774Z,2.60
2022-08-10T20:15:48.110Z,2.70
2022-08-10T20:18:30.872Z,2.60
2022-08-10T20:21:31.243Z,2.60
2022-08-10T20:24:34.318Z,2.70
2022-08-10T20:28:00.942Z,2.90
2022-08-10T20:31:17.502Z,2.60
2022-08-10T20:34:06.098Z,3.00
2022-08-10T20:37:02.360Z,2.80
2022-08-10T20:39:58.135Z,2.80
2022-08-10T20:42:49.033Z,2.70
2022-08-10T20:45:58.274Z,2.60
2022-08-10T20:49:08.135Z,3.00
2022-08-10T20:52:11.192Z,3.20
2022-08-10T20:54:56.247Z,2.50
2022-08-10T20:57:55.353Z,2.60
2022-08-10T21:00:46.397Z,2.60
2022-08-10T21:04:15.473Z,2.60
2022-08-10T21:07:58.228Z,2.80
2022-08-10T21:10:39.323Z,2.60
2022-08-10T21:13:40.254Z,2.90
2022-08-10T21:16:35.175Z,2.90
2022-08-10T21:19:33.377Z,2.60
2022-08-10T21:22:32.068Z,2.90
2022-08-10T21:25:19.138Z,2.60
2022-08-10T21:28:06.745Z,3.20
2022-08-10T21:31:36.921Z,3.20
2022-08-10T21:34:34.689Z,3.00
2022-08-10T21:37:39.853Z,2.80
2022-08-10T21:40:32.448Z,3.20
2022-08-10T21:43:46.296Z,3.40
2022-08-10T21:46:58.882Z,3.10
2022-08-10T21:50:07.087Z,3.20
2022-08-10T21:53:16.747Z,3.00
2022-08-10T21:56:15.762Z,3.20
2022-08-10T21:59:12.642Z,3.00
2022-08-10T22:09:09.676Z,3.00
2022-08-10T22:12:31.170Z,3.10
2022-08-10T22:19:03.023Z,3.30
2022-08-10T22:22:41.051Z,2.70
2022-08-10T22:25:51.983Z,3.10
2022-08-10T22:28:54.977Z,3.10
2022-08-10T22:31:25.895Z,2.80
2022-08-10T22:31:50.789Z,3.00
2022-08-10T22:35:13.037Z,3.20
2022-08-10T22:38:27.960Z,3.10
2022-08-10T22:41:46.951Z,3.30
2022-08-10T22:44:45.796Z,3.50
2022-08-10T22:47:51.752Z,4.00
2022-08-10T22:50:36.777Z,3.20
2022-08-10T22:53:24.990Z,3.30
2022-08-10T22:56:19.847Z,3.50
2022-08-10T22:59:03.618Z,3.70
2022-08-10T23:02:08.966Z,3.50
2022-08-10T23:05:00.734Z,3.20
2022-08-10T23:07:41.480Z,3.50
2022-08-10T23:10:34.616Z,3.50
2022-08-10T23:13:26.383Z,4.10
2022-08-10T23:16:50.032Z,3.60
2022-08-10T23:19:52.800Z,3.90
2022-08-10T23:22:48.670Z,3.30
2022-08-10T23:25:35.751Z,3.30
2022-08-10T23:28:39.343Z,2.80
2022-08-10T23:32:01.103Z,3.80
2022-08-10T23:34:27.727Z,3.50
2022-08-10T23:37:20.606Z,3.50
2022-08-10T23:40:13.683Z,3.50
2022-08-10T23:42:56.577Z,3.30
2022-08-10T23:45:53.579Z,3.80
2022-08-10T23:48:33.577Z,3.30
2022-08-10T23:51:26.608Z,3.00
2022-08-10T23:54:27.926Z,3.30
2022-08-10T23:57:11.478Z,3.30
